Time;durP1;ratioP1;P1;durP2;ratioP2;P2;SDS_P1;SDS_P2;PMS_P1;PMS_P2;Temp;Humidity;BMP_temperature;BMP_pressure;BME280_temperature;BME280_humidity;BME280_pressure;Samples;Min_cycle;Max_cycle;Signal;HPM_P1;HPM_P2
2023/03/19 00:04:00;;;;;;;10.60;8.70;;;;;;;;;;10301979;28;20243;-77
2023/03/19 00:09:01;;;;;;;11.98;8.40;;;;;;;;;;10320610;28;20278;-77
2023/03/19 00:14:02;;;;;;;10.98;8.75;;;;;;;;;;10327907;28;20220;-75
2023/03/19 00:19:03;;;;;;;12.95;9.32;;;;;;;;;;10326832;28;20307;-75
2023/03/19 00:24:05;;;;;;;13.80;10.25;;;;;;;;;;10307596;28;20230;-77
2023/03/19 00:29:06;;;;;;;11.50;9.48;;;;;;;;;;10303889;28;20271;-76
2023/03/19 00:34:08;;;;;;;14.52;10.43;;;;;;;;;;10294985;28;20335;-77
2023/03/19 00:39:09;;;;;;;15.98;9.50;;;;;;;;;;10305035;28;20706;-76
2023/03/19 00:44:10;;;;;;;14.35;10.30;;;;;;;;;;10315200;28;20224;-76
2023/03/19 00:49:11;;;;;;;15.00;11.73;;;;;;;;;;10323669;28;20235;-76
2023/03/19 00:54:12;;;;;;;14.45;11.38;;;;;;;;;;10320657;28;20745;-74
2023/03/19 00:59:13;;;;;;;16.13;11.13;;;;;;;;;;10309175;28;20228;-78
2023/03/19 01:04:14;;;;;;;14.75;10.73;;;;;;;;;;10308060;28;20228;-77
2023/03/19 01:09:15;;;;;;;18.55;11.68;;;;;;;;;;10313778;28;20314;-75
2023/03/19 01:14:16;;;;;;;12.65;9.98;;;;;;;;;;10309104;28;20216;-76
2023/03/19 01:19:18;;;;;;;13.90;10.00;;;;;;;;;;10322774;28;20216;-77
2023/03/19 01:24:19;;;;;;;15.50;10.40;;;;;;;;;;10301794;28;20233;-77
2023/03/19 01:29:26;;;;;;;13.80;9.68;;;;;;;;;;10326277;28;20348;-77
2023/03/19 01:34:28;;;;;;;11.90;9.68;;;;;;;;;;10307250;28;20227;-77
2023/03/19 01:39:36;;;;;;;14.07;10.20;;;;;;;;;;10307794;28;20835;-76
2023/03/19 01:44:41;;;;;;;11.05;9.32;;;;;;;;;;10306969;28;20593;-77
2023/03/19 01:50:21;;;;;;;15.98;9.82;;;;;;;;;;10301220;28;20319;-77
2023/03/19 01:55:24;;;;;;;10.73;9.02;;;;;;;;;;10288815;28;20232;-77
2023/03/19 02:00:46;;;;;;;13.90;10.35;;;;;;;;;;10256946;28;1051018;-77
2023/03/19 02:05:50;;;;;;;11.98;9.35;;;;;;;;;;10297026;28;21193;-77
2023/03/19 02:10:54;;;;;;;11.30;9.15;;;;;;;;;;10307773;28;20238;-77
2023/03/19 02:15:56;;;;;;;12.43;8.77;;;;;;;;;;10330686;28;20221;-77
2023/03/19 02:21:00;;;;;;;13.02;9.90;;;;;;;;;;10316289;28;20216;-76
2023/03/19 02:26:14;;;;;;;11.13;9.40;;;;;;;;;;10318372;28;20682;-75
2023/03/19 02:31:17;;;;;;;16.85;10.73;;;;;;;;;;10317853;28;20228;-78
2023/03/19 02:36:19;;;;;;;18.73;11.50;;;;;;;;;;10317591;28;20223;-75
2023/03/19 02:41:21;;;;;;;17.60;10.68;;;;;;;;;;10316661;28;22329;-78
2023/03/19 02:46:22;;;;;;;13.40;11.15;;;;;;;;;;10293305;28;20228;-79
2023/03/19 02:51:23;;;;;;;13.85;9.98;;;;;;;;;;10311509;28;20227;-79
2023/03/19 02:56:25;;;;;;;16.23;13.30;;;;;;;;;;10322862;28;20209;-77
2023/03/19 03:01:26;;;;;;;19.10;11.52;;;;;;;;;;10329092;28;20239;-80
2023/03/19 03:06:27;;;;;;;12.82;10.68;;;;;;;;;;10313827;28;20711;-79
2023/03/19 03:11:28;;;;;;;16.90;11.68;;;;;;;;;;10333402;28;20975;-79
2023/03/19 03:16:29;;;;;;;16.33;11.35;;;;;;;;;;10317243;28;21027;-79
2023/03/19 03:21:30;;;;;;;14.82;11.35;;;;;;;;;;10299736;28;20238;-78
2023/03/19 03:26:33;;;;;;;17.00;12.00;;;;;;;;;;10328937;28;20220;-79
2023/03/19 03:31:34;;;;;;;16.42;11.82;;;;;;;;;;10334579;28;20259;-79
2023/03/19 03:36:36;;;;;;;16.98;11.35;;;;;;;;;;10301053;28;20219;-79
2023/03/19 03:41:37;;;;;;;14.90;11.52;;;;;;;;;;10321862;28;20220;-79
2023/03/19 03:46:38;;;;;;;16.25;11.93;;;;;;;;;;10314461;28;20266;-79
2023/03/19 03:51:41;;;;;;;13.60;11.25;;;;;;;;;;10309803;28;20221;-81
2023/03/19 03:56:42;;;;;;;18.45;11.45;;;;;;;;;;10305170;28;20372;-81
2023/03/19 04:01:43;;;;;;;16.95;12.25;;;;;;;;;;10296461;28;20936;-79
2023/03/19 04:06:44;;;;;;;18.40;11.70;;;;;;;;;;10295190;28;22114;-81
2023/03/19 04:12:04;;;;;;;14.60;11.98;;;;;;;;;;10327195;28;20216;-82
2023/03/19 04:17:05;;;;;;;17.83;12.20;;;;;;;;;;10294802;28;20322;-78
2023/03/19 04:22:07;;;;;;;17.88;11.55;;;;;;;;;;10313033;28;20801;-79
2023/03/19 04:27:09;;;;;;;18.65;13.15;;;;;;;;;;10293408;28;20232;-79
2023/03/19 04:32:11;;;;;;;16.05;11.82;;;;;;;;;;10306762;28;20714;-79
2023/03/19 04:37:12;;;;;;;21.90;11.98;;;;;;;;;;10324185;28;20243;-77
2023/03/19 04:42:20;;;;;;;18.10;11.77;;;;;;;;;;10317976;28;20662;-79
2023/03/19 04:47:31;;;;;;;16.77;11.93;;;;;;;;;;10298378;28;20294;-76
2023/03/19 04:52:36;;;;;;;17.05;10.35;;;;;;;;;;10311768;28;20651;-79
2023/03/19 04:57:38;;;;;;;13.52;9.68;;;;;;;;;;10299457;28;20300;-78
2023/03/19 05:02:40;;;;;;;12.38;9.15;;;;;;;;;;10295660;28;20307;-80
2023/03/19 05:07:42;;;;;;;12.15;8.15;;;;;;;;;;10297239;28;20220;-77
2023/03/19 05:12:44;;;;;;;15.23;10.95;;;;;;;;;;10291389;28;20370;-77
2023/03/19 05:17:46;;;;;;;15.68;11.55;;;;;;;;;;10312625;28;20763;-79
2023/03/19 05:22:54;;;;;;;15.77;11.60;;;;;;;;;;10311849;28;20239;-75
2023/03/19 05:28:04;;;;;;;18.10;12.30;;;;;;;;;;10312990;28;20250;-76
2023/03/19 05:33:05;;;;;;;16.33;10.88;;;;;;;;;;10296983;28;20232;-78
2023/03/19 05:38:10;;;;;;;16.58;11.15;;;;;;;;;;10308193;28;20279;-77
2023/03/19 05:43:13;;;;;;;13.57;10.45;;;;;;;;;;10311352;28;20250;-77
2023/03/19 05:48:16;;;;;;;15.30;11.38;;;;;;;;;;10301621;28;20294;-78
2023/03/19 05:53:20;;;;;;;17.98;12.05;;;;;;;;;;10292265;28;20252;-79
2023/03/19 05:58:47;;;;;;;15.55;11.38;;;;;;;;;;10314608;28;20238;-78
2023/03/19 06:03:53;;;;;;;16.45;12.10;;;;;;;;;;10307759;28;20290;-79
2023/03/19 06:08:55;;;;;;;15.82;11.38;;;;;;;;;;10296254;28;20215;-77
2023/03/19 06:14:00;;;;;;;18.58;11.38;;;;;;;;;;10318602;28;21080;-79
2023/03/19 06:19:02;;;;;;;17.23;11.60;;;;;;;;;;10315067;28;20800;-76
2023/03/19 06:24:04;;;;;;;16.60;11.25;;;;;;;;;;10329005;28;20224;-79
2023/03/19 06:29:09;;;;;;;15.50;10.95;;;;;;;;;;10300018;28;20855;-77
2023/03/19 06:34:12;;;;;;;17.27;11.38;;;;;;;;;;10293577;28;20227;-79
2023/03/19 06:39:16;;;;;;;15.55;10.48;;;;;;;;;;10306525;28;20701;-77
2023/03/19 06:44:17;;;;;;;15.85;11.75;;;;;;;;;;10330066;28;20571;-78
2023/03/19 06:49:18;;;;;;;15.40;11.25;;;;;;;;;;10315978;28;20224;-78
2023/03/19 06:54:19;;;;;;;16.52;12.02;;;;;;;;;;10305959;28;20235;-76
2023/03/19 06:59:20;;;;;;;16.52;11.60;;;;;;;;;;10286044;28;20251;-80
2023/03/19 07:04:22;;;;;;;18.85;11.35;;;;;;;;;;10296294;28;20231;-80
2023/03/19 07:09:23;;;;;;;19.52;13.00;;;;;;;;;;10306636;28;20600;-78
2023/03/19 07:14:24;;;;;;;18.70;12.82;;;;;;;;;;10299590;28;21034;-78
2023/03/19 07:19:25;;;;;;;17.52;12.30;;;;;;;;;;10287896;28;20221;-78
2023/03/19 07:24:26;;;;;;;14.95;11.80;;;;;;;;;;10296478;28;21000;-77
2023/03/19 07:29:27;;;;;;;19.50;13.20;;;;;;;;;;10289130;28;20215;-78
2023/03/19 07:34:28;;;;;;;14.88;11.45;;;;;;;;;;10308237;28;20613;-78
2023/03/19 07:39:29;;;;;;;17.35;11.63;;;;;;;;;;10282010;28;20358;-81
2023/03/19 07:44:30;;;;;;;17.08;11.30;;;;;;;;;;10308853;28;20654;-78
2023/03/19 07:49:31;;;;;;;17.63;12.10;;;;;;;;;;10315757;28;20220;-80
2023/03/19 07:54:32;;;;;;;14.38;10.63;;;;;;;;;;10328645;28;20216;-79
2023/03/19 07:59:34;;;;;;;14.50;11.23;;;;;;;;;;10304000;28;20330;-81
2023/03/19 08:04:35;;;;;;;14.02;11.25;;;;;;;;;;10345309;28;20291;-82
2023/03/19 08:09:36;;;;;;;16.88;11.48;;;;;;;;;;10341988;28;20340;-82
2023/03/19 08:14:38;;;;;;;17.98;11.38;;;;;;;;;;10319688;28;20227;-79
2023/03/19 08:19:39;;;;;;;13.65;10.80;;;;;;;;;;10308898;28;20212;-79
2023/03/19 08:24:40;;;;;;;14.65;11.10;;;;;;;;;;10305333;28;20684;-80
2023/03/19 08:29:41;;;;;;;13.88;10.75;;;;;;;;;;10328361;28;20254;-77
2023/03/19 08:34:42;;;;;;;13.80;10.30;;;;;;;;;;10308521;28;21000;-80
2023/03/19 08:39:43;;;;;;;12.68;9.77;;;;;;;;;;10331338;28;20224;-80
2023/03/19 08:44:44;;;;;;;15.02;10.20;;;;;;;;;;10321812;28;20366;-80
2023/03/19 08:49:45;;;;;;;12.68;9.70;;;;;;;;;;10318124;28;20220;-79
2023/03/19 08:54:46;;;;;;;12.63;9.48;;;;;;;;;;10286295;28;20232;-81
2023/03/19 08:59:47;;;;;;;12.65;8.35;;;;;;;;;;10321304;28;20216;-78
2023/03/19 09:04:48;;;;;;;10.32;8.27;;;;;;;;;;10307603;28;20224;-77
2023/03/19 09:09:49;;;;;;;11.65;8.40;;;;;;;;;;10306974;28;21088;-77
2023/03/19 09:14:51;;;;;;;10.60;8.88;;;;;;;;;;10312339;28;21117;-79
2023/03/19 09:19:52;;;;;;;12.55;8.23;;;;;;;;;;10307667;28;20714;-79
2023/03/19 09:24:53;;;;;;;9.77;8.15;;;;;;;;;;10300536;28;20229;-77
2023/03/19 09:29:54;;;;;;;10.98;8.40;;;;;;;;;;10320779;28;20220;-77
2023/03/19 09:34:55;;;;;;;11.50;8.63;;;;;;;;;;10316548;28;20223;-79
2023/03/19 09:39:56;;;;;;;17.52;8.45;;;;;;;;;;10295978;28;20212;-80
2023/03/19 09:44:57;;;;;;;9.55;8.30;;;;;;;;;;10295165;28;20223;-80
2023/03/19 09:50:00;;;;;;;11.80;8.10;;;;;;;;;;10302105;28;20990;-79
2023/03/19 09:55:20;;;;;;;15.57;8.27;;;;;;;;;;10299986;28;20240;-78
2023/03/19 10:00:24;;;;;;;9.02;7.65;;;;;;;;;;10295273;28;21476;-77
2023/03/19 10:05:42;;;;;;;9.32;7.50;;;;;;;;;;10290011;28;20220;-78
2023/03/19 10:10:47;;;;;;;9.13;7.20;;;;;;;;;;10284547;28;20683;-78
2023/03/19 10:15:50;;;;;;;11.85;8.07;;;;;;;;;;10294957;28;20239;-78
2023/03/19 10:20:57;;;;;;;9.27;6.85;;;;;;;;;;10300131;28;20231;-78
2023/03/19 10:25:58;;;;;;;10.10;8.25;;;;;;;;;;10307937;28;20738;-80
2023/03/19 10:31:11;;;;;;;8.55;7.03;;;;;;;;;;10298015;28;20222;-78
2023/03/19 10:36:13;;;;;;;8.00;6.78;;;;;;;;;;10310619;28;20263;-80
2023/03/19 10:41:18;;;;;;;7.72;6.93;;;;;;;;;;10311206;28;20305;-80
2023/03/19 10:46:20;;;;;;;9.48;7.45;;;;;;;;;;10313491;28;20229;-79
2023/03/19 10:51:26;;;;;;;10.10;7.78;;;;;;;;;;10310058;28;20606;-80
2023/03/19 10:56:29;;;;;;;10.05;7.70;;;;;;;;;;10329998;28;20212;-78
2023/03/19 11:01:34;;;;;;;9.38;8.05;;;;;;;;;;10291966;28;20311;-77
2023/03/19 11:06:36;;;;;;;9.07;6.25;;;;;;;;;;10320545;28;20228;-78
2023/03/19 11:11:55;;;;;;;9.57;6.53;;;;;;;;;;10301675;28;20758;-78
2023/03/19 11:17:05;;;;;;;6.25;5.72;;;;;;;;;;10302980;28;20213;-79
2023/03/19 11:22:07;;;;;;;6.57;6.03;;;;;;;;;;10321142;28;20235;-77
2023/03/19 11:27:10;;;;;;;7.75;6.40;;;;;;;;;;10310318;28;20224;-75
2023/03/19 11:32:28;;;;;;;6.60;6.10;;;;;;;;;;10304813;28;20235;-77
2023/03/19 11:37:49;;;;;;;8.43;5.95;;;;;;;;;;10309607;28;20247;-78
2023/03/19 11:43:02;;;;;;;10.02;5.95;;;;;;;;;;10304028;28;20904;-77
2023/03/19 11:48:12;;;;;;;6.22;5.65;;;;;;;;;;10307984;28;20227;-74
2023/03/19 11:53:26;;;;;;;11.98;6.25;;;;;;;;;;10295741;28;20651;-77
2023/03/19 11:58:41;;;;;;;7.43;6.53;;;;;;;;;;10288468;28;20302;-77
2023/03/19 12:03:51;;;;;;;8.73;6.25;;;;;;;;;;10315528;28;20342;-77
2023/03/19 12:09:02;;;;;;;6.93;6.10;;;;;;;;;;10327650;28;20306;-77
2023/03/19 12:14:12;;;;;;;10.55;6.60;;;;;;;;;;10287111;28;20221;-78
2023/03/19 12:19:42;;;;;;;7.55;5.03;;;;;;;;;;10300927;28;20289;-80
2023/03/19 12:25:02;;;;;;;7.07;5.63;;;;;;;;;;10276389;28;20303;-77
2023/03/19 12:30:28;;;;;;;8.00;5.60;;;;;;;;;;10286313;28;20323;-76
2023/03/19 12:35:33;;;;;;;8.88;5.75;;;;;;;;;;10315544;28;20240;-77
2023/03/19 12:40:40;;;;;;;6.30;5.60;;;;;;;;;;10318583;28;20231;-77
2023/03/19 12:45:44;;;;;;;6.47;5.43;;;;;;;;;;10304632;28;20223;-76
2023/03/19 12:50:48;;;;;;;5.53;4.72;;;;;;;;;;10310375;28;20224;-78
2023/03/19 12:55:53;;;;;;;4.68;4.38;;;;;;;;;;10288214;28;20236;-77
2023/03/19 13:01:07;;;;;;;3.80;3.60;;;;;;;;;;10312356;28;20880;-75
2023/03/19 13:06:14;;;;;;;4.13;3.83;;;;;;;;;;10306496;28;20753;-78
2023/03/19 13:11:32;;;;;;;5.68;5.28;;;;;;;;;;10316158;28;20305;-77
2023/03/19 13:16:50;;;;;;;5.72;5.15;;;;;;;;;;10323867;28;20228;-76
2023/03/19 13:21:53;;;;;;;5.05;4.63;;;;;;;;;;10319102;28;20228;-78
2023/03/19 13:26:55;;;;;;;5.82;5.43;;;;;;;;;;10298745;28;20220;-78
2023/03/19 13:32:05;;;;;;;5.82;5.32;;;;;;;;;;10304731;28;20232;-79
2023/03/19 13:37:20;;;;;;;4.93;4.63;;;;;;;;;;10309235;28;20940;-78
2023/03/19 13:42:23;;;;;;;6.07;5.05;;;;;;;;;;10323360;28;20225;-77
2023/03/19 13:47:27;;;;;;;8.82;6.53;;;;;;;;;;10314930;28;20224;-77
2023/03/19 13:52:28;;;;;;;6.50;6.00;;;;;;;;;;10294869;28;20224;-78
2023/03/19 13:57:34;;;;;;;6.38;5.82;;;;;;;;;;10325392;28;20601;-77
2023/03/19 14:02:38;;;;;;;4.60;4.20;;;;;;;;;;10291842;28;20258;-78
2023/03/19 14:07:41;;;;;;;5.72;4.47;;;;;;;;;;10316853;28;21523;-78
2023/03/19 14:12:43;;;;;;;4.95;4.35;;;;;;;;;;10323116;28;20281;-79
2023/03/19 14:17:45;;;;;;;7.07;5.22;;;;;;;;;;10312603;28;20216;-77
2023/03/19 14:23:02;;;;;;;10.23;5.45;;;;;;;;;;10311937;28;20274;-78
2023/03/19 14:28:08;;;;;;;6.82;4.80;;;;;;;;;;10294765;28;20940;-77
2023/03/19 14:33:15;;;;;;;4.95;4.55;;;;;;;;;;10301167;28;20596;-77
2023/03/19 14:38:36;;;;;;;5.38;4.97;;;;;;;;;;10304860;28;20220;-77
2023/03/19 14:44:00;;;;;;;6.03;5.07;;;;;;;;;;10312087;28;20745;-77
2023/03/19 14:49:20;;;;;;;4.35;4.05;;;;;;;;;;10310397;28;20227;-77
2023/03/19 14:54:27;;;;;;;4.32;4.03;;;;;;;;;;10323018;28;20236;-78
2023/03/19 14:59:36;;;;;;;5.88;4.40;;;;;;;;;;10327062;28;20220;-77
2023/03/19 15:04:37;;;;;;;9.13;4.55;;;;;;;;;;10304917;28;20792;-79
2023/03/19 15:09:38;;;;;;;3.97;3.67;;;;;;;;;;10288406;28;20275;-79
2023/03/19 15:15:12;;;;;;;3.47;3.17;;;;;;;;;;10308553;28;20230;-79
2023/03/19 15:20:20;;;;;;;3.80;3.38;;;;;;;;;;10330650;28;20299;-78
2023/03/19 15:25:21;;;;;;;3.70;3.50;;;;;;;;;;10306162;28;20193;-78
2023/03/19 15:30:27;;;;;;;3.67;3.40;;;;;;;;;;10323745;28;20757;-78
2023/03/19 15:35:33;;;;;;;3.80;3.47;;;;;;;;;;10309202;28;20307;-78
2023/03/19 15:40:35;;;;;;;3.05;2.85;;;;;;;;;;10316271;28;20232;-78
2023/03/19 15:45:36;;;;;;;4.35;3.70;;;;;;;;;;10311457;28;20230;-78
2023/03/19 15:50:40;;;;;;;10.18;5.15;;;;;;;;;;10326921;28;20350;-79
2023/03/19 15:55:41;;;;;;;8.23;6.97;;;;;;;;;;10301909;28;20319;-78
2023/03/19 16:00:42;;;;;;;4.78;4.35;;;;;;;;;;10314334;28;20228;-78
2023/03/19 16:05:44;;;;;;;2.75;2.50;;;;;;;;;;10311464;28;20341;-79
2023/03/19 16:10:46;;;;;;;1.33;1.00;;;;;;;;;;10316523;28;20230;-78
2023/03/19 16:15:47;;;;;;;1.52;1.52;;;;;;;;;;10313037;28;20317;-78
2023/03/19 16:21:09;;;;;;;5.00;4.55;;;;;;;;;;10290129;28;20228;-76
2023/03/19 16:26:23;;;;;;;2.60;2.50;;;;;;;;;;10297282;28;20228;-77
2023/03/19 16:31:27;;;;;;;7.18;5.35;;;;;;;;;;10306854;28;20296;-78
2023/03/19 16:36:31;;;;;;;4.35;4.05;;;;;;;;;;10289259;28;20611;-79
2023/03/19 16:41:32;;;;;;;38.90;11.98;;;;;;;;;;10293699;28;20232;-78
2023/03/19 16:46:34;;;;;;;14.30;9.57;;;;;;;;;;10317169;28;20220;-78
2023/03/19 16:51:35;;;;;;;3.55;3.38;;;;;;;;;;10312569;28;20225;-79
2023/03/19 16:56:37;;;;;;;0.98;0.80;;;;;;;;;;10294595;28;20271;-79
2023/03/19 17:01:38;;;;;;;2.45;1.67;;;;;;;;;;10288176;28;20220;-76
2023/03/19 17:06:39;;;;;;;0.68;0.68;;;;;;;;;;10314155;28;20223;-78
2023/03/19 17:11:41;;;;;;;24.08;15.63;;;;;;;;;;10297206;28;20226;-79
2023/03/19 17:16:47;;;;;;;3.97;3.65;;;;;;;;;;10307622;28;20217;-78
2023/03/19 17:21:52;;;;;;;1.65;1.58;;;;;;;;;;10294762;28;21164;-78
2023/03/19 17:26:53;;;;;;;2.67;2.20;;;;;;;;;;10292789;28;20244;-78
2023/03/19 17:31:55;;;;;;;1.10;1.10;;;;;;;;;;10291803;28;20745;-77
2023/03/19 17:37:00;;;;;;;1.10;1.10;;;;;;;;;;10288935;28;20695;-78
2023/03/19 17:42:01;;;;;;;1.33;1.25;;;;;;;;;;10311274;28;20220;-78
2023/03/19 17:47:02;;;;;;;2.92;1.90;;;;;;;;;;10316671;28;20224;-79
2023/03/19 17:52:09;;;;;;;3.63;1.75;;;;;;;;;;10295514;28;20429;-78
2023/03/19 17:57:13;;;;;;;2.42;2.20;;;;;;;;;;10319176;28;20271;-78
2023/03/19 18:02:20;;;;;;;2.67;2.47;;;;;;;;;;10312330;28;20228;-82
2023/03/19 18:07:21;;;;;;;2.80;2.70;;;;;;;;;;10318249;28;20227;-81
2023/03/19 18:12:22;;;;;;;1.50;1.40;;;;;;;;;;10341145;28;20231;-81
2023/03/19 18:17:23;;;;;;;2.17;1.50;;;;;;;;;;10312327;28;20224;-80
2023/03/19 18:22:26;;;;;;;2.30;2.10;;;;;;;;;;10325891;28;20217;-80
2023/03/19 18:27:27;;;;;;;1.67;1.58;;;;;;;;;;10286506;28;20216;-82
2023/03/19 18:32:30;;;;;;;1.90;1.83;;;;;;;;;;10319781;28;20227;-81
2023/03/19 18:37:32;;;;;;;1.92;1.65;;;;;;;;;;10313262;28;20227;-82
2023/03/19 18:42:33;;;;;;;1.45;1.45;;;;;;;;;;10329101;28;20231;-80
2023/03/19 18:47:34;;;;;;;4.80;2.28;;;;;;;;;;10310614;28;20223;-81
2023/03/19 18:52:35;;;;;;;4.78;3.08;;;;;;;;;;10296743;28;20243;-81
2023/03/19 18:57:37;;;;;;;5.35;4.55;;;;;;;;;;10341436;28;20223;-80
2023/03/19 19:02:38;;;;;;;5.30;4.90;;;;;;;;;;10281969;28;20266;-79
2023/03/19 19:07:39;;;;;;;7.22;4.85;;;;;;;;;;10311253;28;20224;-79
2023/03/19 19:12:41;;;;;;;14.60;8.23;;;;;;;;;;10292686;28;20224;-80
2023/03/19 19:17:43;;;;;;;5.80;3.85;;;;;;;;;;10291989;28;20228;-80
2023/03/19 19:22:44;;;;;;;3.10;2.90;;;;;;;;;;10304661;28;20220;-80
2023/03/19 19:27:46;;;;;;;3.63;3.38;;;;;;;;;;10315329;28;20223;-81
2023/03/19 19:32:47;;;;;;;2.80;2.58;;;;;;;;;;10320658;28;20698;-79
2023/03/19 19:37:48;;;;;;;2.70;2.60;;;;;;;;;;10302025;28;20229;-79
2023/03/19 19:42:51;;;;;;;2.17;2.10;;;;;;;;;;10310493;28;20319;-79
2023/03/19 19:47:52;;;;;;;2.92;2.35;;;;;;;;;;10296612;28;20228;-79
2023/03/19 19:52:54;;;;;;;2.60;2.40;;;;;;;;;;10293257;28;20228;-79
2023/03/19 19:57:56;;;;;;;2.20;2.20;;;;;;;;;;10334086;28;20233;-79
2023/03/19 20:02:58;;;;;;;2.38;2.28;;;;;;;;;;10312181;28;20736;-82
2023/03/19 20:08:00;;;;;;;2.63;2.42;;;;;;;;;;10308733;28;20960;-78
2023/03/19 20:13:01;;;;;;;3.13;2.53;;;;;;;;;;10308229;28;20299;-80
2023/03/19 20:18:03;;;;;;;2.80;2.70;;;;;;;;;;10308653;28;20224;-80
2023/03/19 20:23:05;;;;;;;2.30;2.22;;;;;;;;;;10307437;28;20247;-81
2023/03/19 20:28:10;;;;;;;3.22;2.25;;;;;;;;;;10327507;28;20243;-81
2023/03/19 20:33:11;;;;;;;1.63;1.63;;;;;;;;;;10301443;28;20216;-79
2023/03/19 20:38:13;;;;;;;1.70;1.70;;;;;;;;;;10326239;28;20244;-79
2023/03/19 20:43:21;;;;;;;1.83;1.55;;;;;;;;;;10328842;28;20315;-80
2023/03/19 20:48:23;;;;;;;2.15;2.00;;;;;;;;;;10294797;28;20216;-79
2023/03/19 20:53:25;;;;;;;1.90;1.80;;;;;;;;;;10328389;28;20573;-81
2023/03/19 20:58:28;;;;;;;1.52;1.52;;;;;;;;;;10314493;28;20597;-81
2023/03/19 21:03:30;;;;;;;1.90;1.80;;;;;;;;;;10309880;28;20598;-81
2023/03/19 21:08:34;;;;;;;2.05;1.52;;;;;;;;;;10307115;28;20221;-80
2023/03/19 21:13:35;;;;;;;2.05;1.65;;;;;;;;;;10324508;28;20227;-81
2023/03/19 21:18:36;;;;;;;1.20;1.20;;;;;;;;;;10312746;28;20212;-79
2023/03/19 21:23:38;;;;;;;1.25;1.10;;;;;;;;;;10327984;28;20244;-79
2023/03/19 21:28:40;;;;;;;0.90;0.90;;;;;;;;;;10288273;28;20235;-77
2023/03/19 21:33:42;;;;;;;0.68;0.68;;;;;;;;;;10308455;28;20275;-79
2023/03/19 21:38:43;;;;;;;0.60;0.60;;;;;;;;;;10318881;28;20215;-79
2023/03/19 21:43:46;;;;;;;0.68;0.68;;;;;;;;;;10289717;28;20240;-79
2023/03/19 21:48:47;;;;;;;0.60;0.60;;;;;;;;;;10309963;28;20342;-79
2023/03/19 21:53:48;;;;;;;0.60;0.60;;;;;;;;;;10286509;28;20277;-79
2023/03/19 21:58:50;;;;;;;0.70;0.70;;;;;;;;;;10309370;28;20212;-81
2023/03/19 22:03:52;;;;;;;0.88;0.82;;;;;;;;;;10292975;28;20870;-79
2023/03/19 22:08:53;;;;;;;0.85;0.80;;;;;;;;;;10318874;28;20228;-78
2023/03/19 22:13:59;;;;;;;1.23;1.20;;;;;;;;;;10314818;28;20225;-79
2023/03/19 22:19:00;;;;;;;1.38;1.05;;;;;;;;;;10329065;28;20212;-79
2023/03/19 22:24:01;;;;;;;1.08;0.88;;;;;;;;;;10313528;28;20623;-79
2023/03/19 22:29:20;;;;;;;0.70;0.70;;;;;;;;;;10316066;28;20227;-78
2023/03/19 22:34:23;;;;;;;0.70;0.70;;;;;;;;;;10314094;28;20290;-78
2023/03/19 22:39:24;;;;;;;0.70;0.70;;;;;;;;;;10322588;28;20335;-78
2023/03/19 22:44:27;;;;;;;1.75;0.82;;;;;;;;;;10328884;28;20224;-79
2023/03/19 22:49:28;;;;;;;0.90;0.90;;;;;;;;;;10319359;28;20276;-80
2023/03/19 22:54:29;;;;;;;1.88;1.77;;;;;;;;;;10314829;28;20248;-78
2023/03/19 22:59:30;;;;;;;2.95;2.25;;;;;;;;;;10296347;28;20204;-78
2023/03/19 23:04:32;;;;;;;2.15;2.03;;;;;;;;;;10303953;28;20240;-78
2023/03/19 23:09:37;;;;;;;2.00;1.90;;;;;;;;;;10311098;28;20224;-78
2023/03/19 23:14:38;;;;;;;1.58;1.50;;;;;;;;;;10333501;28;20215;-79
2023/03/19 23:19:39;;;;;;;1.65;1.50;;;;;;;;;;10314045;28;20220;-78
2023/03/19 23:24:41;;;;;;;1.15;1.15;;;;;;;;;;10307836;28;20342;-78
2023/03/19 23:29:43;;;;;;;1.42;1.40;;;;;;;;;;10313598;28;20592;-77
2023/03/19 23:34:44;;;;;;;0.77;0.77;;;;;;;;;;10329412;28;20677;-78
2023/03/19 23:39:46;;;;;;;0.70;0.70;;;;;;;;;;10309645;28;20213;-78
2023/03/19 23:44:47;;;;;;;0.70;0.70;;;;;;;;;;10314023;28;20235;-79
2023/03/19 23:49:48;;;;;;;0.73;0.73;;;;;;;;;;10334265;28;20220;-78
2023/03/19 23:54:49;;;;;;;0.80;0.80;;;;;;;;;;10313038;28;20228;-78
2023/03/19 23:59:51;;;;;;;0.63;0.63;;;;;;;;;;10333349;28;20215;-78
